sensor_id;sensor_type;location;lat;lon;timestamp;P1;P2;P0
77692;PMS5003;66984;47.404;18.836;2024-03-23T00:52:53;35.00;30.00;19.50
77692;PMS5003;66984;47.404;18.836;2024-03-23T00:53:54;36.50;29.25;19.00
77692;PMS5003;66984;47.404;18.836;2024-03-23T00:54:56;35.00;29.00;19.00
77692;PMS5003;66984;47.404;18.836;2024-03-23T00:55:56;33.33;29.00;19.00
77692;PMS5003;66984;47.404;18.836;2024-03-23T00:56:57;37.00;32.00;19.50
77692;PMS5003;66984;47.404;18.836;2024-03-23T00:57:58;35.00;30.00;19.33
77692;PMS5003;66984;47.404;18.836;2024-03-23T00:58:58;36.00;31.00;20.00
77692;PMS5003;66984;47.404;18.836;2024-03-23T00:59:59;34.33;30.00;19.00
77692;PMS5003;66984;47.404;18.836;2024-03-23T01:01:00;34.00;29.00;19.00
77692;PMS5003;66984;47.404;18.836;2024-03-23T01:02:01;34.33;29.67;19.00
77692;PMS5003;66984;47.404;18.836;2024-03-23T01:03:01;33.33;28.33;19.00
77692;PMS5003;66984;47.404;18.836;2024-03-23T01:04:02;35.33;30.00;19.00
77692;PMS5003;66984;47.404;18.836;2024-03-23T01:05:03;33.50;29.00;19.00
77692;PMS5003;66984;47.404;18.836;2024-03-23T01:06:04;35.25;30.00;19.00
77692;PMS5003;66984;47.404;18.836;2024-03-23T01:07:05;34.00;30.00;19.00
77692;PMS5003;66984;47.404;18.836;2024-03-23T01:08:06;34.67;30.00;19.00
77692;PMS5003;66984;47.404;18.836;2024-03-23T01:09:07;35.00;30.75;19.00
77692;PMS5003;66984;47.404;18.836;2024-03-23T01:10:11;34.00;29.00;19.00
77692;PMS5003;66984;47.404;18.836;2024-03-23T01:11:11;35.67;29.00;19.00
77692;PMS5003;66984;47.404;18.836;2024-03-23T01:12:12;36.00;30.00;19.00
77692;PMS5003;66984;47.404;18.836;2024-03-23T01:13:13;33.67;29.00;19.00
77692;PMS5003;66984;47.404;18.836;2024-03-23T01:14:14;33.67;28.33;18.00
77692;PMS5003;66984;47.404;18.836;2024-03-23T01:15:14;36.00;30.00;18.00
77692;PMS5003;66984;47.404;18.836;2024-03-23T01:16:15;34.00;29.00;19.00
77692;PMS5003;66984;47.404;18.836;2024-03-23T01:17:16;34.67;29.00;18.67
77692;PMS5003;66984;47.404;18.836;2024-03-23T01:18:17;35.33;29.00;18.00
77692;PMS5003;66984;47.404;18.836;2024-03-23T01:19:21;36.00;29.00;18.50
77692;PMS5003;66984;47.404;18.836;2024-03-23T01:20:21;33.00;28.33;18.33
77692;PMS5003;66984;47.404;18.836;2024-03-23T01:21:22;33.33;28.33;19.00
77692;PMS5003;66984;47.404;18.836;2024-03-23T01:22:23;34.00;29.00;18.33
77692;PMS5003;66984;47.404;18.836;2024-03-23T01:23:24;36.00;29.00;19.00
77692;PMS5003;66984;47.404;18.836;2024-03-23T01:24:24;35.00;30.00;19.00
77692;PMS5003;66984;47.404;18.836;2024-03-23T01:25:25;32.00;28.33;19.00
77692;PMS5003;66984;47.404;18.836;2024-03-23T01:26:26;33.00;28.33;18.33
77692;PMS5003;66984;47.404;18.836;2024-03-23T01:27:26;33.33;28.33;18.00
77692;PMS5003;66984;47.404;18.836;2024-03-23T01:28:27;32.00;28.00;18.00
77692;PMS5003;66984;47.404;18.836;2024-03-23T01:29:28;32.50;28.00;18.00
77692;PMS5003;66984;47.404;18.836;2024-03-23T01:30:29;31.33;27.33;19.00
77692;PMS5003;66984;47.404;18.836;2024-03-23T01:31:30;28.00;26.25;18.50
77692;PMS5003;66984;47.404;18.836;2024-03-23T01:32:32;30.00;27.00;18.00
77692;PMS5003;66984;47.404;18.836;2024-03-23T01:33:32;32.33;28.00;18.00
77692;PMS5003;66984;47.404;18.836;2024-03-23T01:34:33;32.50;28.00;18.50
77692;PMS5003;66984;47.404;18.836;2024-03-23T01:35:34;32.00;28.33;18.00
77692;PMS5003;66984;47.404;18.836;2024-03-23T01:36:35;30.67;27.00;18.00
77692;PMS5003;66984;47.404;18.836;2024-03-23T01:37:35;32.00;28.33;18.33
77692;PMS5003;66984;47.404;18.836;2024-03-23T01:38:36;31.00;28.00;18.00
77692;PMS5003;66984;47.404;18.836;2024-03-23T01:39:37;28.00;26.00;18.00
77692;PMS5003;66984;47.404;18.836;2024-03-23T01:40:37;30.00;26.00;18.00
77692;PMS5003;66984;47.404;18.836;2024-03-23T01:41:38;32.00;28.00;18.00
77692;PMS5003;66984;47.404;18.836;2024-03-23T01:42:42;32.00;28.50;18.00
77692;PMS5003;66984;47.404;18.836;2024-03-23T01:43:43;31.50;28.00;18.00
77692;PMS5003;66984;47.404;18.836;2024-03-23T01:44:44;33.00;28.33;18.00
77692;PMS5003;66984;47.404;18.836;2024-03-23T01:45:44;31.33;28.00;18.00
77692;PMS5003;66984;47.404;18.836;2024-03-23T01:46:45;31.00;28.00;18.00
77692;PMS5003;66984;47.404;18.836;2024-03-23T01:47:46;30.00;28.00;18.00
77692;PMS5003;66984;47.404;18.836;2024-03-23T01:48:49;32.50;27.75;18.00
77692;PMS5003;66984;47.404;18.836;2024-03-23T01:49:50;33.00;28.00;18.50
77692;PMS5003;66984;47.404;18.836;2024-03-23T01:50:51;33.00;28.00;18.00
77692;PMS5003;66984;47.404;18.836;2024-03-23T01:51:52;32.50;27.50;18.00
77692;PMS5003;66984;47.404;18.836;2024-03-23T01:52:53;34.00;27.50;17.00
77692;PMS5003;66984;47.404;18.836;2024-03-23T01:53:54;31.00;28.00;17.00
77692;PMS5003;66984;47.404;18.836;2024-03-23T01:54:57;30.00;27.00;18.00
77692;PMS5003;66984;47.404;18.836;2024-03-23T01:55:58;32.67;27.33;18.00
77692;PMS5003;66984;47.404;18.836;2024-03-23T01:56:58;33.00;27.50;18.00
77692;PMS5003;66984;47.404;18.836;2024-03-23T01:58:00;34.00;29.00;18.00
77692;PMS5003;66984;47.404;18.836;2024-03-23T01:59:01;34.00;28.00;18.00
77692;PMS5003;66984;47.404;18.836;2024-03-23T02:00:02;32.25;27.50;18.00
77692;PMS5003;66984;47.404;18.836;2024-03-23T02:01:04;31.50;27.25;18.00
77692;PMS5003;66984;47.404;18.836;2024-03-23T02:02:05;30.33;27.00;18.00
77692;PMS5003;66984;47.404;18.836;2024-03-23T02:03:24;31.00;27.50;18.00
77692;PMS5003;66984;47.404;18.836;2024-03-23T02:04:28;31.50;27.00;18.00
77692;PMS5003;66984;47.404;18.836;2024-03-23T02:05:29;31.50;28.00;18.00
77692;PMS5003;66984;47.404;18.836;2024-03-23T02:06:30;32.00;28.00;18.00
77692;PMS5003;66984;47.404;18.836;2024-03-23T02:07:31;33.00;29.00;18.00
77692;PMS5003;66984;47.404;18.836;2024-03-23T02:08:31;30.00;27.00;17.00
77692;PMS5003;66984;47.404;18.836;2024-03-23T02:09:32;30.00;27.00;18.00
77692;PMS5003;66984;47.404;18.836;2024-03-23T02:10:33;30.25;26.00;18.00
77692;PMS5003;66984;47.404;18.836;2024-03-23T02:11:34;32.33;27.00;18.00
77692;PMS5003;66984;47.404;18.836;2024-03-23T02:12:35;31.00;26.75;16.00
77692;PMS5003;66984;47.404;18.836;2024-03-23T02:13:38;30.75;26.25;16.00
77692;PMS5003;66984;47.404;18.836;2024-03-23T02:14:38;32.50;27.00;18.00
77692;PMS5003;66984;47.404;18.836;2024-03-23T02:15:39;34.00;27.33;18.00
77692;PMS5003;66984;47.404;18.836;2024-03-23T02:16:40;31.50;27.75;18.00
77692;PMS5003;66984;47.404;18.836;2024-03-23T02:17:41;30.75;27.75;18.00
77692;PMS5003;66984;47.404;18.836;2024-03-23T02:18:42;33.33;29.00;18.00
77692;PMS5003;66984;47.404;18.836;2024-03-23T02:19:43;31.25;28.00;18.00
77692;PMS5003;66984;47.404;18.836;2024-03-23T02:20:44;31.50;28.00;18.00
77692;PMS5003;66984;47.404;18.836;2024-03-23T02:21:45;32.67;28.00;18.00
77692;PMS5003;66984;47.404;18.836;2024-03-23T02:22:50;31.00;28.00;18.00
77692;PMS5003;66984;47.404;18.836;2024-03-23T02:23:51;30.50;27.50;18.00
77692;PMS5003;66984;47.404;18.836;2024-03-23T02:24:52;31.00;28.00;18.00
77692;PMS5003;66984;47.404;18.836;2024-03-23T02:25:53;31.33;28.00;18.00
77692;PMS5003;66984;47.404;18.836;2024-03-23T02:26:53;31.33;28.00;18.00
77692;PMS5003;66984;47.404;18.836;2024-03-23T02:27:54;31.33;28.00;18.00
77692;PMS5003;66984;47.404;18.836;2024-03-23T02:28:55;32.00;27.50;18.00
77692;PMS5003;66984;47.404;18.836;2024-03-23T02:29:56;33.00;29.00;18.00
77692;PMS5003;66984;47.404;18.836;2024-03-23T02:30:57;33.00;28.00;18.00
77692;PMS5003;66984;47.404;18.836;2024-03-23T02:31:58;36.50;31.00;18.00
77692;PMS5003;66984;47.404;18.836;2024-03-23T02:32:59;36.33;31.00;18.00
77692;PMS5003;66984;47.404;18.836;2024-03-23T02:34:00;34.00;29.00;18.00
77692;PMS5003;66984;47.404;18.836;2024-03-23T02:35:01;32.00;28.00;18.00
77692;PMS5003;66984;47.404;18.836;2024-03-23T02:36:01;34.33;28.33;18.00
77692;PMS5003;66984;47.404;18.836;2024-03-23T02:37:03;33.75;29.00;18.00
77692;PMS5003;66984;47.404;18.836;2024-03-23T02:38:11;36.00;31.00;18.75
77692;PMS5003;66984;47.404;18.836;2024-03-23T02:39:11;35.50;30.00;18.25
77692;PMS5003;66984;47.404;18.836;2024-03-23T02:40:12;36.33;31.00;19.00
77692;PMS5003;66984;47.404;18.836;2024-03-23T02:41:13;35.00;29.25;18.00
77692;PMS5003;66984;47.404;18.836;2024-03-23T02:42:14;35.50;30.25;18.00
77692;PMS5003;66984;47.404;18.836;2024-03-23T02:43:17;36.50;31.00;18.00
77692;PMS5003;66984;47.404;18.836;2024-03-23T02:44:18;35.33;31.00;19.00
77692;PMS5003;66984;47.404;18.836;2024-03-23T02:45:18;35.00;30.33;18.00
77692;PMS5003;66984;47.404;18.836;2024-03-23T02:46:19;36.00;30.00;18.25
77692;PMS5003;66984;47.404;18.836;2024-03-23T02:47:20;36.33;31.00;18.00
77692;PMS5003;66984;47.404;18.836;2024-03-23T02:48:21;36.50;31.00;19.00
77692;PMS5003;66984;47.404;18.836;2024-03-23T02:49:21;36.33;31.00;19.00
77692;PMS5003;66984;47.404;18.836;2024-03-23T02:50:22;38.00;31.00;19.00
77692;PMS5003;66984;47.404;18.836;2024-03-23T02:51:23;36.50;30.25;19.00
77692;PMS5003;66984;47.404;18.836;2024-03-23T02:52:24;35.33;29.00;19.00
77692;PMS5003;66984;47.404;18.836;2024-03-23T02:53:24;34.67;29.00;18.00
77692;PMS5003;66984;47.404;18.836;2024-03-23T02:54:25;34.00;29.00;18.00
77692;PMS5003;66984;47.404;18.836;2024-03-23T02:55:26;33.25;28.00;18.00
77692;PMS5003;66984;47.404;18.836;2024-03-23T02:56:27;34.33;29.00;18.00
77692;PMS5003;66984;47.404;18.836;2024-03-23T02:57:28;36.00;30.00;18.00
77692;PMS5003;66984;47.404;18.836;2024-03-23T02:58:29;35.00;29.00;19.00
77692;PMS5003;66984;47.404;18.836;2024-03-23T02:59:30;36.50;29.00;18.00
77692;PMS5003;66984;47.404;18.836;2024-03-23T03:00:30;36.00;29.00;18.00
77692;PMS5003;66984;47.404;18.836;2024-03-23T03:01:31;36.00;29.00;19.00
77692;PMS5003;66984;47.404;18.836;2024-03-23T03:02:32;34.00;29.00;18.00
77692;PMS5003;66984;47.404;18.836;2024-03-23T03:03:33;36.50;31.00;19.50
77692;PMS5003;66984;47.404;18.836;2024-03-23T03:04:34;36.00;30.00;19.00
77692;PMS5003;66984;47.404;18.836;2024-03-23T03:05:34;36.00;29.00;18.25
77692;PMS5003;66984;47.404;18.836;2024-03-23T03:06:35;31.00;26.33;18.00
77692;PMS5003;66984;47.404;18.836;2024-03-23T03:07:36;32.00;28.00;18.00
77692;PMS5003;66984;47.404;18.836;2024-03-23T03:08:39;32.75;28.00;18.00
77692;PMS5003;66984;47.404;18.836;2024-03-23T03:09:40;35.33;30.67;18.67
77692;PMS5003;66984;47.404;18.836;2024-03-23T03:10:40;36.67;31.33;20.00
77692;PMS5003;66984;47.404;18.836;2024-03-23T03:11:41;36.00;31.00;20.00
77692;PMS5003;66984;47.404;18.836;2024-03-23T03:12:42;36.00;31.00;19.00
77692;PMS5003;66984;47.404;18.836;2024-03-23T03:13:43;36.67;31.00;19.00
77692;PMS5003;66984;47.404;18.836;2024-03-23T03:14:43;37.50;31.00;19.25
77692;PMS5003;66984;47.404;18.836;2024-03-23T03:15:44;34.00;30.00;18.00
77692;PMS5003;66984;47.404;18.836;2024-03-23T03:16:46;35.00;29.00;18.00
77692;PMS5003;66984;47.404;18.836;2024-03-23T03:17:47;36.00;30.00;19.00
77692;PMS5003;66984;47.404;18.836;2024-03-23T03:18:47;35.33;30.00;18.33
77692;PMS5003;66984;47.404;18.836;2024-03-23T03:19:48;37.67;31.00;19.00
77692;PMS5003;66984;47.404;18.836;2024-03-23T03:20:49;38.00;31.33;19.00
77692;PMS5003;66984;47.404;18.836;2024-03-23T03:21:49;37.67;31.00;19.00
77692;PMS5003;66984;47.404;18.836;2024-03-23T03:22:50;36.00;31.00;20.00
77692;PMS5003;66984;47.404;18.836;2024-03-23T03:23:54;35.50;31.25;21.00
77692;PMS5003;66984;47.404;18.836;2024-03-23T03:24:56;36.00;30.50;20.00
77692;PMS5003;66984;47.404;18.836;2024-03-23T03:25:57;36.00;31.00;20.67
77692;PMS5003;66984;47.404;18.836;2024-03-23T03:26:58;36.00;31.00;19.00
77692;PMS5003;66984;47.404;18.836;2024-03-23T03:27:59;36.33;30.00;20.00
77692;PMS5003;66984;47.404;18.836;2024-03-23T03:28:59;36.00;31.00;21.00
77692;PMS5003;66984;47.404;18.836;2024-03-23T03:30:01;36.50;31.00;20.00
77692;PMS5003;66984;47.404;18.836;2024-03-23T03:31:06;38.25;31.00;20.50
77692;PMS5003;66984;47.404;18.836;2024-03-23T03:32:07;36.00;31.00;21.00
77692;PMS5003;66984;47.404;18.836;2024-03-23T03:33:08;38.25;31.75;20.00
77692;PMS5003;66984;47.404;18.836;2024-03-23T03:34:08;39.00;31.33;20.00
77692;PMS5003;66984;47.404;18.836;2024-03-23T03:35:09;38.00;31.00;19.00
77692;PMS5003;66984;47.404;18.836;2024-03-23T03:36:10;37.00;31.00;19.00
77692;PMS5003;66984;47.404;18.836;2024-03-23T03:37:11;37.50;31.00;18.00
77692;PMS5003;66984;47.404;18.836;2024-03-23T03:38:12;37.67;31.33;19.00
77692;PMS5003;66984;47.404;18.836;2024-03-23T03:39:13;36.00;31.00;19.00
77692;PMS5003;66984;47.404;18.836;2024-03-23T03:40:13;36.50;30.00;18.00
77692;PMS5003;66984;47.404;18.836;2024-03-23T03:41:15;36.50;29.50;18.00
77692;PMS5003;66984;47.404;18.836;2024-03-23T03:42:16;35.50;30.00;18.00
77692;PMS5003;66984;47.404;18.836;2024-03-23T03:43:17;36.50;31.00;18.00
77692;PMS5003;66984;47.404;18.836;2024-03-23T03:44:17;35.33;31.00;18.00
77692;PMS5003;66984;47.404;18.836;2024-03-23T03:45:18;37.00;32.00;19.00
77692;PMS5003;66984;47.404;18.836;2024-03-23T03:46:19;34.00;29.00;19.00
77692;PMS5003;66984;47.404;18.836;2024-03-23T03:47:20;33.33;28.33;19.00
77692;PMS5003;66984;47.404;18.836;2024-03-23T03:48:20;33.00;28.00;18.00
77692;PMS5003;66984;47.404;18.836;2024-03-23T03:49:21;32.33;28.00;18.00
77692;PMS5003;66984;47.404;18.836;2024-03-23T03:50:22;35.00;29.00;18.00
77692;PMS5003;66984;47.404;18.836;2024-03-23T03:51:22;37.00;29.67;18.00
77692;PMS5003;66984;47.404;18.836;2024-03-23T03:52:23;34.00;29.00;18.00
77692;PMS5003;66984;47.404;18.836;2024-03-23T03:53:25;33.00;28.00;18.00
77692;PMS5003;66984;47.404;18.836;2024-03-23T03:54:26;37.00;30.50;18.00
77692;PMS5003;66984;47.404;18.836;2024-03-23T03:55:27;36.33;29.00;19.00
77692;PMS5003;66984;47.404;18.836;2024-03-23T03:56:28;39.75;32.00;21.00
77692;PMS5003;66984;47.404;18.836;2024-03-23T03:57:28;41.33;35.00;22.33
77692;PMS5003;66984;47.404;18.836;2024-03-23T03:58:29;45.67;36.33;23.00
77692;PMS5003;66984;47.404;18.836;2024-03-23T03:59:30;49.00;39.00;23.00
77692;PMS5003;66984;47.404;18.836;2024-03-23T04:00:31;50.33;40.67;25.00
77692;PMS5003;66984;47.404;18.836;2024-03-23T04:01:31;51.00;41.00;25.00
77692;PMS5003;66984;47.404;18.836;2024-03-23T04:02:32;49.00;39.00;25.00
77692;PMS5003;66984;47.404;18.836;2024-03-23T04:03:33;46.00;38.00;24.00
77692;PMS5003;66984;47.404;18.836;2024-03-23T04:04:34;49.00;39.75;24.50
77692;PMS5003;66984;47.404;18.836;2024-03-23T04:05:35;49.33;39.00;24.67
77692;PMS5003;66984;47.404;18.836;2024-03-23T04:06:35;47.00;38.00;23.00
77692;PMS5003;66984;47.404;18.836;2024-03-23T04:07:36;45.67;37.00;23.00
77692;PMS5003;66984;47.404;18.836;2024-03-23T04:08:37;47.00;37.33;23.00
77692;PMS5003;66984;47.404;18.836;2024-03-23T04:09:37;43.33;36.00;22.33
77692;PMS5003;66984;47.404;18.836;2024-03-23T04:10:38;45.00;36.00;22.33
77692;PMS5003;66984;47.404;18.836;2024-03-23T04:11:39;45.33;36.00;22.33
77692;PMS5003;66984;47.404;18.836;2024-03-23T04:12:40;45.33;36.67;23.00
77692;PMS5003;66984;47.404;18.836;2024-03-23T04:13:41;44.75;36.00;22.50
77692;PMS5003;66984;47.404;18.836;2024-03-23T04:14:42;41.00;34.00;22.33
77692;PMS5003;66984;47.404;18.836;2024-03-23T04:15:42;40.00;33.00;21.00
77692;PMS5003;66984;47.404;18.836;2024-03-23T04:16:43;42.67;36.00;23.00
77692;PMS5003;66984;47.404;18.836;2024-03-23T04:17:44;49.33;39.00;25.00
77692;PMS5003;66984;47.404;18.836;2024-03-23T04:18:45;49.50;40.50;27.00
77692;PMS5003;66984;47.404;18.836;2024-03-23T04:19:48;46.00;37.00;24.00
77692;PMS5003;66984;47.404;18.836;2024-03-23T04:20:49;42.00;35.00;22.50
77692;PMS5003;66984;47.404;18.836;2024-03-23T04:21:50;40.33;33.00;21.00
77692;PMS5003;66984;47.404;18.836;2024-03-23T04:22:50;40.00;32.00;22.00
77692;PMS5003;66984;47.404;18.836;2024-03-23T04:23:51;38.00;31.33;21.00
77692;PMS5003;66984;47.404;18.836;2024-03-23T04:24:56;36.75;31.00;21.00
77692;PMS5003;66984;47.404;18.836;2024-03-23T04:26:02;36.00;31.50;20.00
77692;PMS5003;66984;47.404;18.836;2024-03-23T04:27:03;37.50;31.50;19.75
77692;PMS5003;66984;47.404;18.836;2024-03-23T04:28:04;36.50;31.00;18.50
77692;PMS5003;66984;47.404;18.836;2024-03-23T04:29:05;37.50;31.00;18.00
77692;PMS5003;66984;47.404;18.836;2024-03-23T04:30:06;35.50;30.00;19.00
77692;PMS5003;66984;47.404;18.836;2024-03-23T04:31:11;37.00;31.00;18.00
77692;PMS5003;66984;47.404;18.836;2024-03-23T04:32:12;36.33;29.00;18.00
77692;PMS5003;66984;47.404;18.836;2024-03-23T04:33:14;38.50;31.00;18.00
77692;PMS5003;66984;47.404;18.836;2024-03-23T04:34:15;39.00;31.33;19.00
77692;PMS5003;66984;47.404;18.836;2024-03-23T04:35:15;38.67;32.00;20.00
77692;PMS5003;66984;47.404;18.836;2024-03-23T04:36:16;40.00;32.00;20.00
77692;PMS5003;66984;47.404;18.836;2024-03-23T04:37:17;39.00;32.00;19.67
77692;PMS5003;66984;47.404;18.836;2024-03-23T04:38:18;38.00;31.50;21.00
77692;PMS5003;66984;47.404;18.836;2024-03-23T04:39:19;37.00;32.00;19.00
77692;PMS5003;66984;47.404;18.836;2024-03-23T04:40:20;36.33;31.00;20.00
77692;PMS5003;66984;47.404;18.836;2024-03-23T04:41:20;38.00;31.33;20.00
77692;PMS5003;66984;47.404;18.836;2024-03-23T04:42:21;36.33;31.00;19.00
77692;PMS5003;66984;47.404;18.836;2024-03-23T04:43:25;36.50;31.00;19.00
77692;PMS5003;66984;47.404;18.836;2024-03-23T04:44:26;36.00;31.00;19.00
77692;PMS5003;66984;47.404;18.836;2024-03-23T04:45:27;37.00;31.00;19.67
77692;PMS5003;66984;47.404;18.836;2024-03-23T04:46:28;36.00;30.67;19.00
77692;PMS5003;66984;47.404;18.836;2024-03-23T04:47:29;39.00;31.50;19.50
77692;PMS5003;66984;47.404;18.836;2024-03-23T04:48:29;37.00;31.33;20.67
77692;PMS5003;66984;47.404;18.836;2024-03-23T04:49:30;37.00;32.00;21.00
77692;PMS5003;66984;47.404;18.836;2024-03-23T04:50:31;36.33;31.33;21.00
77692;PMS5003;66984;47.404;18.836;2024-03-23T04:51:35;36.50;31.00;20.00
77692;PMS5003;66984;47.404;18.836;2024-03-23T04:52:40;36.50;30.00;19.00
77692;PMS5003;66984;47.404;18.836;2024-03-23T04:53:40;35.33;29.33;19.00
77692;PMS5003;66984;47.404;18.836;2024-03-23T04:54:41;36.00;30.00;19.00
77692;PMS5003;66984;47.404;18.836;2024-03-23T04:55:43;36.00;29.50;19.00
77692;PMS5003;66984;47.404;18.836;2024-03-23T04:56:44;35.00;30.25;19.00
77692;PMS5003;66984;47.404;18.836;2024-03-23T04:57:45;37.00;31.00;20.00
77692;PMS5003;66984;47.404;18.836;2024-03-23T04:58:46;37.00;31.00;19.00
77692;PMS5003;66984;47.404;18.836;2024-03-23T04:59:47;36.67;31.00;19.00
77692;PMS5003;66984;47.404;18.836;2024-03-23T05:00:48;37.75;32.00;19.00
77692;PMS5003;66984;47.404;18.836;2024-03-23T05:01:53;37.50;31.00;19.00
77692;PMS5003;66984;47.404;18.836;2024-03-23T05:02:53;37.00;31.00;18.67
77692;PMS5003;66984;47.404;18.836;2024-03-23T05:03:54;37.67;32.00;18.33
77692;PMS5003;66984;47.404;18.836;2024-03-23T05:04:55;36.25;31.00;18.50
77692;PMS5003;66984;47.404;18.836;2024-03-23T05:05:56;36.00;31.00;18.33
77692;PMS5003;66984;47.404;18.836;2024-03-23T05:06:56;35.33;29.00;19.00
77692;PMS5003;66984;47.404;18.836;2024-03-23T05:07:57;35.00;29.00;18.33
77692;PMS5003;66984;47.404;18.836;2024-03-23T05:08:58;35.33;29.00;18.33
77692;PMS5003;66984;47.404;18.836;2024-03-23T05:09:58;37.00;31.00;20.00
77692;PMS5003;66984;47.404;18.836;2024-03-23T05:10:59;34.67;30.00;19.00
77692;PMS5003;66984;47.404;18.836;2024-03-23T05:12:00;35.67;30.00;19.00
77692;PMS5003;66984;47.404;18.836;2024-03-23T05:13:01;34.00;28.00;18.50
77692;PMS5003;66984;47.404;18.836;2024-03-23T05:14:02;33.50;28.50;19.00
77692;PMS5003;66984;47.404;18.836;2024-03-23T05:15:04;34.00;29.00;19.00
77692;PMS5003;66984;47.404;18.836;2024-03-23T05:16:06;35.75;30.50;19.00
77692;PMS5003;66984;47.404;18.836;2024-03-23T05:17:06;34.00;29.00;19.00
77692;PMS5003;66984;47.404;18.836;2024-03-23T05:18:07;33.00;29.00;18.00
77692;PMS5003;66984;47.404;18.836;2024-03-23T05:19:08;33.50;29.00;19.00
77692;PMS5003;66984;47.404;18.836;2024-03-23T05:20:09;34.25;29.00;19.00
77692;PMS5003;66984;47.404;18.836;2024-03-23T05:21:10;36.00;29.75;19.00
77692;PMS5003;66984;47.404;18.836;2024-03-23T05:22:10;37.25;31.75;19.00
77692;PMS5003;66984;47.404;18.836;2024-03-23T05:23:11;34.00;28.33;18.00
77692;PMS5003;66984;47.404;18.836;2024-03-23T05:24:12;32.00;29.00;18.00
77692;PMS5003;66984;47.404;18.836;2024-03-23T05:25:13;34.25;29.50;19.00
77692;PMS5003;66984;47.404;18.836;2024-03-23T05:26:14;33.00;29.00;19.00
77692;PMS5003;66984;47.404;18.836;2024-03-23T05:27:14;32.00;29.00;19.00
77692;PMS5003;66984;47.404;18.836;2024-03-23T05:28:15;32.00;28.00;19.00
77692;PMS5003;66984;47.404;18.836;2024-03-23T05:29:16;30.00;28.00;19.00
77692;PMS5003;66984;47.404;18.836;2024-03-23T05:30:17;31.00;27.00;19.00
77692;PMS5003;66984;47.404;18.836;2024-03-23T05:31:25;32.00;29.00;19.00
77692;PMS5003;66984;47.404;18.836;2024-03-23T05:32:27;34.00;29.00;18.00
77692;PMS5003;66984;47.404;18.836;2024-03-23T05:33:27;33.00;29.00;18.00
77692;PMS5003;66984;47.404;18.836;2024-03-23T05:34:28;35.00;30.00;18.00
77692;PMS5003;66984;47.404;18.836;2024-03-23T05:35:29;34.75;29.00;19.00
77692;PMS5003;66984;47.404;18.836;2024-03-23T05:36:30;32.00;29.00;18.00
77692;PMS5003;66984;47.404;18.836;2024-03-23T05:37:32;35.00;30.00;18.00
77692;PMS5003;66984;47.404;18.836;2024-03-23T05:38:34;36.00;30.50;19.00
77692;PMS5003;66984;47.404;18.836;2024-03-23T05:39:35;37.00;30.33;19.00
77692;PMS5003;66984;47.404;18.836;2024-03-23T05:40:35;37.00;31.00;20.00
77692;PMS5003;66984;47.404;18.836;2024-03-23T05:41:37;34.00;30.00;19.00
77692;PMS5003;66984;47.404;18.836;2024-03-23T05:42:38;36.33;31.00;20.00
77692;PMS5003;66984;47.404;18.836;2024-03-23T05:43:39;36.33;30.33;20.00
77692;PMS5003;66984;47.404;18.836;2024-03-23T05:44:40;36.00;30.75;19.00
77692;PMS5003;66984;47.404;18.836;2024-03-23T05:45:40;37.00;31.67;19.67
77692;PMS5003;66984;47.404;18.836;2024-03-23T05:46:41;37.00;31.33;20.00
77692;PMS5003;66984;47.404;18.836;2024-03-23T05:47:42;38.00;31.75;20.00
77692;PMS5003;66984;47.404;18.836;2024-03-23T05:48:43;36.33;31.33;20.00
77692;PMS5003;66984;47.404;18.836;2024-03-23T05:49:45;36.33;31.00;19.00
77692;PMS5003;66984;47.404;18.836;2024-03-23T05:50:47;36.00;30.00;18.00
77692;PMS5003;66984;47.404;18.836;2024-03-23T05:51:48;36.50;30.00;18.00
77692;PMS5003;66984;47.404;18.836;2024-03-23T05:52:49;35.00;30.00;18.00
77692;PMS5003;66984;47.404;18.836;2024-03-23T05:53:50;33.25;29.00;18.00
77692;PMS5003;66984;47.404;18.836;2024-03-23T05:54:51;35.67;31.33;19.00
77692;PMS5003;66984;47.404;18.836;2024-03-23T05:56:02;40.00;33.50;20.50
77692;PMS5003;66984;47.404;18.836;2024-03-23T05:57:07;41.00;34.00;21.00
77692;PMS5003;66984;47.404;18.836;2024-03-23T05:58:08;39.00;33.00;21.00
77692;PMS5003;66984;47.404;18.836;2024-03-23T05:59:09;38.00;32.00;21.00
77692;PMS5003;66984;47.404;18.836;2024-03-23T06:00:09;37.33;31.33;21.00
77692;PMS5003;66984;47.404;18.836;2024-03-23T06:01:16;36.50;31.00;20.00
77692;PMS5003;66984;47.404;18.836;2024-03-23T06:02:17;36.00;30.00;19.00
77692;PMS5003;66984;47.404;18.836;2024-03-23T06:03:17;37.33;30.00;20.00
77692;PMS5003;66984;47.404;18.836;2024-03-23T06:04:18;37.50;31.50;20.00
77692;PMS5003;66984;47.404;18.836;2024-03-23T06:05:19;35.00;30.00;20.00
77692;PMS5003;66984;47.404;18.836;2024-03-23T06:06:20;37.00;29.00;19.00
77692;PMS5003;66984;47.404;18.836;2024-03-23T06:07:22;37.50;31.50;19.00
77692;PMS5003;66984;47.404;18.836;2024-03-23T06:08:23;35.67;31.00;20.00
77692;PMS5003;66984;47.404;18.836;2024-03-23T06:09:24;35.25;30.75;19.75
77692;PMS5003;66984;47.404;18.836;2024-03-23T06:10:25;34.00;30.00;19.00
77692;PMS5003;66984;47.404;18.836;2024-03-23T06:11:26;33.33;29.00;18.00
77692;PMS5003;66984;47.404;18.836;2024-03-23T06:12:27;33.00;29.00;18.00
77692;PMS5003;66984;47.404;18.836;2024-03-23T06:13:28;31.25;27.50;19.00
77692;PMS5003;66984;47.404;18.836;2024-03-23T06:14:30;33.00;29.00;19.00
77692;PMS5003;66984;47.404;18.836;2024-03-23T06:15:30;37.33;30.00;19.00
77692;PMS5003;66984;47.404;18.836;2024-03-23T06:16:32;39.50;31.00;19.75
77692;PMS5003;66984;47.404;18.836;2024-03-23T06:17:32;38.00;32.00;20.00
77692;PMS5003;66984;47.404;18.836;2024-03-23T06:18:34;37.50;30.00;20.00
77692;PMS5003;66984;47.404;18.836;2024-03-23T06:19:34;38.00;31.67;19.00
77692;PMS5003;66984;47.404;18.836;2024-03-23T06:20:35;42.33;34.33;22.00
77692;PMS5003;66984;47.404;18.836;2024-03-23T06:21:36;40.00;33.00;22.00
77692;PMS5003;66984;47.404;18.836;2024-03-23T06:22:37;39.00;32.00;20.67
77692;PMS5003;66984;47.404;18.836;2024-03-23T06:23:37;37.00;31.25;20.00
77692;PMS5003;66984;47.404;18.836;2024-03-23T06:24:38;35.00;30.67;20.00
77692;PMS5003;66984;47.404;18.836;2024-03-23T06:25:39;36.00;31.00;20.00
77692;PMS5003;66984;47.404;18.836;2024-03-23T06:26:39;36.67;30.00;19.00
77692;PMS5003;66984;47.404;18.836;2024-03-23T06:27:40;36.75;32.00;20.00
77692;PMS5003;66984;47.404;18.836;2024-03-23T06:28:41;38.00;32.00;20.00
77692;PMS5003;66984;47.404;18.836;2024-03-23T06:29:42;38.00;30.50;20.00
77692;PMS5003;66984;47.404;18.836;2024-03-23T06:30:43;36.00;30.00;19.00